OSDI/DAM METAR and TAF weather

Enter ICAO airport designator
Station Type Date Time Source
OSDI METAR 2022/06/27 09:00 UTC NOAA

OSDI 270900Z 01003KT CAVOK 30/06 Q1010


Station Type Date Time Source
OSDI Decoded METAR 2022/06/27 09:00 UTC NOAA

Damascus Int. Airport, Syria (OSDI) 33-25N 036-31E 609M
Jun 27, 2022 - 05:00 AM EDT / 2022.06.27 0900 UTC
Wind: from the N (010 degrees) at 3 MPH (3 KT):0
Visibility: greater than 7 mile(s):0
Temperature: 86 F (30 C)
Dew Point: 42 F (6 C)
Relative Humidity: 22%
Pressure (altimeter): 29.83 in. Hg (1010 hPa)
ob: OSDI 270900Z 01003KT CAVOK 30/06 Q1010
cycle: 9

Station Type Date Time Source
OSDI TAF 2022/06/27 06:45 UTC NOAA

TAF OSDI 270500Z 2706/2812 20008KT CAVOK
TEMPO 2710/2720 26015KT

Example: see airport list